sensor_id;sensor_type;location;lat;lon;timestamp;pressure;altitude;pressure_sealevel;temperature;humidity
30110;BME280;14965;50.660;13.226;2022-12-10T00:01:03;93707.13;;;-1.28;92.88
30110;BME280;14965;50.660;13.226;2022-12-10T00:03:29;93709.84;;;-1.28;92.84
30110;BME280;14965;50.660;13.226;2022-12-10T00:05:54;93704.44;;;-1.31;92.87
30110;BME280;14965;50.660;13.226;2022-12-10T00:08:20;93710.25;;;-1.33;93.01
30110;BME280;14965;50.660;13.226;2022-12-10T00:10:46;93704.84;;;-1.29;92.99
30110;BME280;14965;50.660;13.226;2022-12-10T00:13:12;93716.03;;;-1.23;93.04
30110;BME280;14965;50.660;13.226;2022-12-10T00:15:37;93710.97;;;-1.21;93.04
30110;BME280;14965;50.660;13.226;2022-12-10T00:18:04;93711.38;;;-1.19;92.92
30110;BME280;14965;50.660;13.226;2022-12-10T00:20:30;93709.84;;;-1.17;92.95
30110;BME280;14965;50.660;13.226;2022-12-10T00:22:56;93706.31;;;-1.14;92.84
30110;BME280;14965;50.660;13.226;2022-12-10T00:25:22;93702.84;;;-1.14;92.82
30110;BME280;14965;50.660;13.226;2022-12-10T00:27:47;93705.56;;;-1.14;92.87
30110;BME280;14965;50.660;13.226;2022-12-10T00:30:13;93712.53;;;-1.20;92.77
30110;BME280;14965;50.660;13.226;2022-12-10T00:32:39;93702.50;;;-1.23;92.55
30110;BME280;14965;50.660;13.226;2022-12-10T00:35:07;93707.13;;;-1.24;92.55
30110;BME280;14965;50.660;13.226;2022-12-10T00:37:33;93704.03;;;-1.22;92.86
30110;BME280;14965;50.660;13.226;2022-12-10T00:39:58;93709.84;;;-1.20;92.95
30110;BME280;14965;50.660;13.226;2022-12-10T00:42:24;93707.13;;;-1.20;92.82
30110;BME280;14965;50.660;13.226;2022-12-10T00:44:50;93697.06;;;-1.20;92.66
30110;BME280;14965;50.660;13.226;2022-12-10T00:47:16;93706.72;;;-1.19;92.69
30110;BME280;14965;50.660;13.226;2022-12-10T00:49:41;93702.84;;;-1.18;92.97
30110;BME280;14965;50.660;13.226;2022-12-10T00:52:08;93699.75;;;-1.16;93.32
30110;BME280;14965;50.660;13.226;2022-12-10T00:54:34;93709.44;;;-1.15;92.84
30110;BME280;14965;50.660;13.226;2022-12-10T00:57:00;93705.56;;;-1.14;93.12
30110;BME280;14965;50.660;13.226;2022-12-10T00:59:26;93710.97;;;-1.14;92.85
30110;BME280;14965;50.660;13.226;2022-12-10T01:01:52;93709.44;;;-1.15;93.16
30110;BME280;14965;50.660;13.226;2022-12-10T01:04:18;93721.44;;;-1.13;93.48
30110;BME280;14965;50.660;13.226;2022-12-10T01:06:45;93709.41;;;-1.12;93.02
30110;BME280;14965;50.660;13.226;2022-12-10T01:09:14;93714.03;;;-1.09;93.43
30110;BME280;14965;50.660;13.226;2022-12-10T01:11:44;93720.25;;;-1.08;93.26
30110;BME280;14965;50.660;13.226;2022-12-10T01:14:13;93722.97;;;-1.08;93.42
30110;BME280;14965;50.660;13.226;2022-12-10T01:16:40;93719.84;;;-1.07;93.27
30110;BME280;14965;50.660;13.226;2022-12-10T01:19:06;93722.97;;;-1.08;93.02
30110;BME280;14965;50.660;13.226;2022-12-10T01:21:32;93717.16;;;-1.10;93.10
30110;BME280;14965;50.660;13.226;2022-12-10T01:23:58;93723.34;;;-1.13;93.43
30110;BME280;14965;50.660;13.226;2022-12-10T01:26:26;93722.22;;;-1.19;93.29
30110;BME280;14965;50.660;13.226;2022-12-10T01:28:53;93723.38;;;-1.20;93.54
30110;BME280;14965;50.660;13.226;2022-12-10T01:31:23;93731.09;;;-1.19;93.44
30110;BME280;14965;50.660;13.226;2022-12-10T01:33:49;93727.22;;;-1.18;93.64
30110;BME280;14965;50.660;13.226;2022-12-10T01:36:16;93726.84;;;-1.16;93.61
30110;BME280;14965;50.660;13.226;2022-12-10T01:38:43;93724.91;;;-1.12;93.75
30110;BME280;14965;50.660;13.226;2022-12-10T01:41:14;93727.97;;;-1.10;93.29
30110;BME280;14965;50.660;13.226;2022-12-10T01:43:54;93732.63;;;-1.07;93.59
30110;BME280;14965;50.660;13.226;2022-12-10T01:46:21;93728.75;;;-1.06;93.50
30110;BME280;14965;50.660;13.226;2022-12-10T01:48:47;93722.97;;;-1.08;93.40
30110;BME280;14965;50.660;13.226;2022-12-10T01:51:14;93729.53;;;-1.09;93.55
30110;BME280;14965;50.660;13.226;2022-12-10T01:53:41;93724.50;;;-1.11;93.75
30110;BME280;14965;50.660;13.226;2022-12-10T01:56:09;93724.91;;;-1.12;93.47
30110;BME280;14965;50.660;13.226;2022-12-10T01:58:35;93731.47;;;-1.13;93.71
30110;BME280;14965;50.660;13.226;2022-12-10T02:01:07;93735.34;;;-1.18;93.93
30110;BME280;14965;50.660;13.226;2022-12-10T02:03:39;93730.72;;;-1.17;94.05
30110;BME280;14965;50.660;13.226;2022-12-10T02:06:13;93738.88;;;-1.21;94.16
30110;BME280;14965;50.660;13.226;2022-12-10T02:09:04;93728.81;;;-1.28;94.38
30110;BME280;14965;50.660;13.226;2022-12-10T02:11:41;93731.53;;;-1.28;94.39
30110;BME280;14965;50.660;13.226;2022-12-10T02:14:12;93729.97;;;-1.29;94.28
30110;BME280;14965;50.660;13.226;2022-12-10T02:16:44;93731.53;;;-1.31;94.62
30110;BME280;14965;50.660;13.226;2022-12-10T02:19:18;93731.53;;;-1.35;94.59
30110;BME280;14965;50.660;13.226;2022-12-10T02:21:49;93720.31;;;-1.37;94.86
30110;BME280;14965;50.660;13.226;2022-12-10T02:24:18;93723.81;;;-1.40;95.19
30110;BME280;14965;50.660;13.226;2022-12-10T02:26:51;93722.63;;;-1.42;95.48
30110;BME280;14965;50.660;13.226;2022-12-10T02:29:26;93719.94;;;-1.42;95.67
30110;BME280;14965;50.660;13.226;2022-12-10T02:31:55;93730.75;;;-1.39;95.71
30110;BME280;14965;50.660;13.226;2022-12-10T02:34:24;93727.28;;;-1.39;95.96
30110;BME280;14965;50.660;13.226;2022-12-10T02:36:53;93723.44;;;-1.42;95.78
30110;BME280;14965;50.660;13.226;2022-12-10T02:39:23;93724.56;;;-1.43;95.82
30110;BME280;14965;50.660;13.226;2022-12-10T02:41:53;93721.50;;;-1.41;95.81
30110;BME280;14965;50.660;13.226;2022-12-10T02:44:20;93731.94;;;-1.36;96.25
30110;BME280;14965;50.660;13.226;2022-12-10T02:46:50;93729.63;;;-1.38;96.22
30110;BME280;14965;50.660;13.226;2022-12-10T02:49:17;93737.34;;;-1.36;96.16
30110;BME280;14965;50.660;13.226;2022-12-10T02:51:43;93744.28;;;-1.32;96.36
30110;BME280;14965;50.660;13.226;2022-12-10T02:54:35;93742.72;;;-1.26;96.02
30110;BME280;14965;50.660;13.226;2022-12-10T02:57:07;93741.94;;;-1.19;96.09
30110;BME280;14965;50.660;13.226;2022-12-10T02:59:47;93746.97;;;-1.14;95.84
30110;BME280;14965;50.660;13.226;2022-12-10T03:02:23;93744.66;;;-1.12;95.39
30110;BME280;14965;50.660;13.226;2022-12-10T03:04:58;93742.31;;;-1.13;95.30
30110;BME280;14965;50.660;13.226;2022-12-10T03:07:29;93741.16;;;-1.16;94.80
30110;BME280;14965;50.660;13.226;2022-12-10T03:10:05;93745.06;;;-1.17;95.01
30110;BME280;14965;50.660;13.226;2022-12-10T03:12:36;93743.47;;;-1.18;94.66
30110;BME280;14965;50.660;13.226;2022-12-10T03:15:07;93743.13;;;-1.20;95.07
30110;BME280;14965;50.660;13.226;2022-12-10T03:17:36;93745.44;;;-1.26;94.44
30110;BME280;14965;50.660;13.226;2022-12-10T03:20:04;93738.50;;;-1.34;94.53
30110;BME280;14965;50.660;13.226;2022-12-10T03:22:32;93736.19;;;-1.39;94.90
30110;BME280;14965;50.660;13.226;2022-12-10T03:24:59;93738.13;;;-1.43;94.98
30110;BME280;14965;50.660;13.226;2022-12-10T03:27:27;93736.56;;;-1.44;95.18
30110;BME280;14965;50.660;13.226;2022-12-10T03:29:56;93738.13;;;-1.46;95.40
30110;BME280;14965;50.660;13.226;2022-12-10T03:32:27;93735.41;;;-1.46;95.52
30110;BME280;14965;50.660;13.226;2022-12-10T03:34:56;93734.28;;;-1.49;95.77
30110;BME280;14965;50.660;13.226;2022-12-10T03:37:24;93738.91;;;-1.49;95.83
30110;BME280;14965;50.660;13.226;2022-12-10T03:39:51;93739.69;;;-1.49;96.32
30110;BME280;14965;50.660;13.226;2022-12-10T03:42:17;93737.34;;;-1.47;96.42
30110;BME280;14965;50.660;13.226;2022-12-10T03:44:43;93738.50;;;-1.44;96.34
30110;BME280;14965;50.660;13.226;2022-12-10T03:47:12;93728.44;;;-1.40;96.47
30110;BME280;14965;50.660;13.226;2022-12-10T03:49:38;93741.22;;;-1.37;96.68
30110;BME280;14965;50.660;13.226;2022-12-10T03:52:06;93732.69;;;-1.36;96.48
30110;BME280;14965;50.660;13.226;2022-12-10T03:54:31;93738.13;;;-1.36;96.47
30110;BME280;14965;50.660;13.226;2022-12-10T03:56:57;93735.00;;;-1.34;96.30
30110;BME280;14965;50.660;13.226;2022-12-10T03:59:23;93740.03;;;-1.33;96.64
30110;BME280;14965;50.660;13.226;2022-12-10T04:01:49;93738.50;;;-1.34;96.43
30110;BME280;14965;50.660;13.226;2022-12-10T04:04:15;93742.34;;;-1.35;96.53
30110;BME280;14965;50.660;13.226;2022-12-10T04:06:41;93749.72;;;-1.32;96.52
30110;BME280;14965;50.660;13.226;2022-12-10T04:09:11;93743.13;;;-1.27;96.58
30110;BME280;14965;50.660;13.226;2022-12-10T04:11:37;93740.00;;;-1.26;96.38
30110;BME280;14965;50.660;13.226;2022-12-10T04:14:03;93744.28;;;-1.24;96.45
30110;BME280;14965;50.660;13.226;2022-12-10T04:16:31;93738.88;;;-1.24;96.09
30110;BME280;14965;50.660;13.226;2022-12-10T04:18:58;93745.06;;;-1.24;95.87
30110;BME280;14965;50.660;13.226;2022-12-10T04:21:25;93742.75;;;-1.29;95.72
30110;BME280;14965;50.660;13.226;2022-12-10T04:23:51;93738.09;;;-1.29;95.66
30110;BME280;14965;50.660;13.226;2022-12-10T04:26:18;93735.75;;;-1.27;95.77
30110;BME280;14965;50.660;13.226;2022-12-10T04:28:44;93738.88;;;-1.24;95.50
30110;BME280;14965;50.660;13.226;2022-12-10T04:31:09;93736.16;;;-1.24;95.14
30110;BME280;14965;50.660;13.226;2022-12-10T04:33:35;93730.34;;;-1.30;95.03
30110;BME280;14965;50.660;13.226;2022-12-10T04:36:01;93728.06;;;-1.35;94.98
30110;BME280;14965;50.660;13.226;2022-12-10T04:38:27;93718.38;;;-1.40;94.82
30110;BME280;14965;50.660;13.226;2022-12-10T04:40:52;93730.38;;;-1.41;95.36
30110;BME280;14965;50.660;13.226;2022-12-10T04:43:20;93726.50;;;-1.40;95.27
30110;BME280;14965;50.660;13.226;2022-12-10T04:45:45;93725.75;;;-1.37;95.40
30110;BME280;14965;50.660;13.226;2022-12-10T04:48:11;93718.00;;;-1.38;95.02
30110;BME280;14965;50.660;13.226;2022-12-10T04:50:37;93721.09;;;-1.40;95.23
30110;BME280;14965;50.660;13.226;2022-12-10T04:53:03;93718.00;;;-1.38;95.27
30110;BME280;14965;50.660;13.226;2022-12-10T04:55:28;93718.03;;;-1.42;95.12
30110;BME280;14965;50.660;13.226;2022-12-10T04:57:54;93719.94;;;-1.42;95.29
30110;BME280;14965;50.660;13.226;2022-12-10T05:00:21;93712.97;;;-1.40;95.22
30110;BME280;14965;50.660;13.226;2022-12-10T05:02:48;93714.50;;;-1.39;95.21
30110;BME280;14965;50.660;13.226;2022-12-10T05:05:14;93712.56;;;-1.38;94.84
30110;BME280;14965;50.660;13.226;2022-12-10T05:07:40;93710.66;;;-1.41;94.56
30110;BME280;14965;50.660;13.226;2022-12-10T05:10:06;93718.78;;;-1.45;94.82
30110;BME280;14965;50.660;13.226;2022-12-10T05:12:32;93707.97;;;-1.45;94.35
30110;BME280;14965;50.660;13.226;2022-12-10T05:14:58;93714.91;;;-1.47;94.55
30110;BME280;14965;50.660;13.226;2022-12-10T05:17:25;93707.19;;;-1.56;94.02
30110;BME280;14965;50.660;13.226;2022-12-10T05:19:51;93699.88;;;-1.63;94.10
30110;BME280;14965;50.660;13.226;2022-12-10T05:22:16;93707.59;;;-1.65;93.83
30110;BME280;14965;50.660;13.226;2022-12-10T05:24:42;93711.47;;;-1.69;94.11
30110;BME280;14965;50.660;13.226;2022-12-10T05:27:08;93716.13;;;-1.70;94.42
30110;BME280;14965;50.660;13.226;2022-12-10T05:29:34;93717.28;;;-1.74;94.27
30110;BME280;14965;50.660;13.226;2022-12-10T05:32:00;93720.00;;;-1.78;94.20
30110;BME280;14965;50.660;13.226;2022-12-10T05:34:27;93718.84;;;-1.88;93.99
30110;BME280;14965;50.660;13.226;2022-12-10T05:36:53;93725.41;;;-1.96;93.47
30110;BME280;14965;50.660;13.226;2022-12-10T05:39:18;93724.63;;;-2.00;93.34
30110;BME280;14965;50.660;13.226;2022-12-10T05:41:44;93727.34;;;-2.00;93.80
30110;BME280;14965;50.660;13.226;2022-12-10T05:44:10;93730.41;;;-2.02;93.81
30110;BME280;14965;50.660;13.226;2022-12-10T05:46:36;93735.81;;;-2.05;93.88
30110;BME280;14965;50.660;13.226;2022-12-10T05:49:03;93739.69;;;-2.06;93.90
30110;BME280;14965;50.660;13.226;2022-12-10T05:51:32;93742.78;;;-2.11;94.05
30110;BME280;14965;50.660;13.226;2022-12-10T05:54:00;93744.31;;;-2.17;93.63
30110;BME280;14965;50.660;13.226;2022-12-10T05:56:26;93749.31;;;-2.27;93.65
30110;BME280;14965;50.660;13.226;2022-12-10T05:58:54;93745.84;;;-2.31;93.60
30110;BME280;14965;50.660;13.226;2022-12-10T06:01:24;93751.63;;;-2.36;93.94
30110;BME280;14965;50.660;13.226;2022-12-10T06:03:50;93755.09;;;-2.39;93.88
30110;BME280;14965;50.660;13.226;2022-12-10T06:06:20;93758.56;;;-2.35;93.96
30110;BME280;14965;50.660;13.226;2022-12-10T06:08:48;93759.75;;;-2.29;94.39
30110;BME280;14965;50.660;13.226;2022-12-10T06:11:13;93765.56;;;-2.23;94.82
30110;BME280;14965;50.660;13.226;2022-12-10T06:13:39;93764.03;;;-2.17;94.91
30110;BME280;14965;50.660;13.226;2022-12-10T06:16:07;93766.72;;;-2.10;94.90
30110;BME280;14965;50.660;13.226;2022-12-10T06:18:34;93769.84;;;-2.04;95.29
30110;BME280;14965;50.660;13.226;2022-12-10T06:21:02;93770.22;;;-1.98;94.87
30110;BME280;14965;50.660;13.226;2022-12-10T06:23:28;93772.94;;;-1.91;95.23
30110;BME280;14965;50.660;13.226;2022-12-10T06:25:55;93769.84;;;-1.86;94.89
30110;BME280;14965;50.660;13.226;2022-12-10T06:28:21;93774.13;;;-1.82;95.02
30110;BME280;14965;50.660;13.226;2022-12-10T06:30:47;93775.28;;;-1.76;95.03
30110;BME280;14965;50.660;13.226;2022-12-10T06:33:13;93785.72;;;-1.74;95.01
30110;BME280;14965;50.660;13.226;2022-12-10T06:35:39;93793.06;;;-1.74;94.74
30110;BME280;14965;50.660;13.226;2022-12-10T06:38:04;93783.00;;;-1.78;94.54
30110;BME280;14965;50.660;13.226;2022-12-10T06:40:30;93784.53;;;-1.77;94.65
30110;BME280;14965;50.660;13.226;2022-12-10T06:42:57;93789.19;;;-1.73;94.67
30110;BME280;14965;50.660;13.226;2022-12-10T06:45:23;93786.84;;;-1.71;94.52
30110;BME280;14965;50.660;13.226;2022-12-10T06:47:49;93794.63;;;-1.70;94.77
30110;BME280;14965;50.660;13.226;2022-12-10T06:50:15;93786.88;;;-1.68;94.82
30110;BME280;14965;50.660;13.226;2022-12-10T06:52:41;93788.81;;;-1.65;95.06
30110;BME280;14965;50.660;13.226;2022-12-10T06:55:07;93784.16;;;-1.64;94.59
30110;BME280;14965;50.660;13.226;2022-12-10T06:57:33;93783.78;;;-1.59;94.83
30110;BME280;14965;50.660;13.226;2022-12-10T07:00:00;93786.09;;;-1.58;94.87
30110;BME280;14965;50.660;13.226;2022-12-10T07:02:26;93784.56;;;-1.59;94.82
30110;BME280;14965;50.660;13.226;2022-12-10T07:04:52;93790.75;;;-1.58;94.74
30110;BME280;14965;50.660;13.226;2022-12-10T07:07:17;93791.88;;;-1.59;95.05
30110;BME280;14965;50.660;13.226;2022-12-10T07:09:43;93788.03;;;-1.58;95.02
30110;BME280;14965;50.660;13.226;2022-12-10T07:12:09;93788.41;;;-1.60;94.90
30110;BME280;14965;50.660;13.226;2022-12-10T07:14:35;93781.47;;;-1.57;94.96
30110;BME280;14965;50.660;13.226;2022-12-10T07:17:02;93798.47;;;-1.53;94.98
30110;BME280;14965;50.660;13.226;2022-12-10T07:19:28;93795.00;;;-1.50;94.76
30110;BME280;14965;50.660;13.226;2022-12-10T07:21:53;93792.31;;;-1.50;94.85
30110;BME280;14965;50.660;13.226;2022-12-10T07:24:19;93797.69;;;-1.46;94.81
30110;BME280;14965;50.660;13.226;2022-12-10T07:26:46;93803.88;;;-1.42;94.91
30110;BME280;14965;50.660;13.226;2022-12-10T07:29:14;93798.09;;;-1.41;94.85
30110;BME280;14965;50.660;13.226;2022-12-10T07:31:40;93798.47;;;-1.39;94.77
30110;BME280;14965;50.660;13.226;2022-12-10T07:34:08;93801.16;;;-1.39;94.53
30110;BME280;14965;50.660;13.226;2022-12-10T07:36:35;93801.56;;;-1.40;94.81
30110;BME280;14965;50.660;13.226;2022-12-10T07:39:01;93803.88;;;-1.39;94.75
30110;BME280;14965;50.660;13.226;2022-12-10T07:41:27;93808.53;;;-1.36;94.53
30110;BME280;14965;50.660;13.226;2022-12-10T07:43:52;93812.78;;;-1.31;94.83
30110;BME280;14965;50.660;13.226;2022-12-10T07:46:21;93813.16;;;-1.26;94.79
30110;BME280;14965;50.660;13.226;2022-12-10T07:48:47;93813.53;;;-1.20;94.73
30110;BME280;14965;50.660;13.226;2022-12-10T07:51:16;93817.78;;;-1.15;94.47
30110;BME280;14965;50.660;13.226;2022-12-10T07:53:43;93820.09;;;-1.10;94.25
30110;BME280;14965;50.660;13.226;2022-12-10T07:56:09;93809.25;;;-1.10;94.17
30110;BME280;14965;50.660;13.226;2022-12-10T07:58:35;93808.88;;;-1.09;93.97
30110;BME280;14965;50.660;13.226;2022-12-10T08:01:05;93811.56;;;-1.09;93.84
30110;BME280;14965;50.660;13.226;2022-12-10T08:03:31;93817.00;;;-1.09;93.47
30110;BME280;14965;50.660;13.226;2022-12-10T08:06:01;93819.69;;;-1.05;93.64
30110;BME280;14965;50.660;13.226;2022-12-10T08:08:29;93809.25;;;-1.03;93.09
30110;BME280;14965;50.660;13.226;2022-12-10T08:10:54;93811.97;;;-0.99;93.30
30110;BME280;14965;50.660;13.226;2022-12-10T08:13:20;93814.28;;;-0.98;93.09
30110;BME280;14965;50.660;13.226;2022-12-10T08:15:46;93810.41;;;-0.93;92.98
30110;BME280;14965;50.660;13.226;2022-12-10T08:18:12;93813.09;;;-0.86;92.81
30110;BME280;14965;50.660;13.226;2022-12-10T08:20:37;93811.53;;;-0.84;92.81
30110;BME280;14965;50.660;13.226;2022-12-10T08:23:03;93812.69;;;-0.81;92.92
30110;BME280;14965;50.660;13.226;2022-12-10T08:25:30;93808.44;;;-0.75;92.33
30110;BME280;14965;50.660;13.226;2022-12-10T08:27:56;93818.47;;;-0.68;91.86
30110;BME280;14965;50.660;13.226;2022-12-10T08:30:22;93811.50;;;-0.69;91.85
30110;BME280;14965;50.660;13.226;2022-12-10T08:32:47;93814.97;;;-0.65;91.69
30110;BME280;14965;50.660;13.226;2022-12-10T08:35:13;93811.44;;;-0.55;91.35
30110;BME280;14965;50.660;13.226;2022-12-10T08:37:40;93823.78;;;-0.43;91.08
30110;BME280;14965;50.660;13.226;2022-12-10T08:40:07;93824.56;;;-0.43;90.42
30110;BME280;14965;50.660;13.226;2022-12-10T08:42:34;93820.34;;;-0.51;89.52
30110;BME280;14965;50.660;13.226;2022-12-10T08:45:00;93818.81;;;-0.56;89.05
30110;BME280;14965;50.660;13.226;2022-12-10T08:47:26;93817.28;;;-0.60;88.55
30110;BME280;14965;50.660;13.226;2022-12-10T08:49:52;93828.13;;;-0.57;88.59
30110;BME280;14965;50.660;13.226;2022-12-10T08:52:18;93827.72;;;-0.55;88.46
30110;BME280;14965;50.660;13.226;2022-12-10T08:54:43;93831.94;;;-0.51;88.23
30110;BME280;14965;50.660;13.226;2022-12-10T08:57:09;93835.84;;;-0.48;87.99
30110;BME280;14965;50.660;13.226;2022-12-10T08:59:36;93840.50;;;-0.52;87.84
30110;BME280;14965;50.660;13.226;2022-12-10T09:02:02;93847.88;;;-0.56;88.20
30110;BME280;14965;50.660;13.226;2022-12-10T09:04:28;93849.81;;;-0.53;88.09
30110;BME280;14965;50.660;13.226;2022-12-10T09:06:53;93845.50;;;-0.51;87.73
30110;BME280;14965;50.660;13.226;2022-12-10T09:09:19;93847.09;;;-0.53;87.48
30110;BME280;14965;50.660;13.226;2022-12-10T09:11:45;93849.03;;;-0.50;87.45
30110;BME280;14965;50.660;13.226;2022-12-10T09:14:11;93857.16;;;-0.54;87.09
30110;BME280;14965;50.660;13.226;2022-12-10T09:16:39;93850.97;;;-0.58;87.01
30110;BME280;14965;50.660;13.226;2022-12-10T09:19:05;93849.81;;;-0.53;86.78
30110;BME280;14965;50.660;13.226;2022-12-10T09:21:31;93850.97;;;-0.54;86.62
30110;BME280;14965;50.660;13.226;2022-12-10T09:23:58;93853.66;;;-0.51;86.51
30110;BME280;14965;50.660;13.226;2022-12-10T09:26:24;93851.34;;;-0.48;86.64
30110;BME280;14965;50.660;13.226;2022-12-10T09:28:50;93846.25;;;-0.43;86.51
30110;BME280;14965;50.660;13.226;2022-12-10T09:31:18;93849.38;;;-0.44;86.59
30110;BME280;14965;50.660;13.226;2022-12-10T09:33:47;93848.22;;;-0.47;86.54
30110;BME280;14965;50.660;13.226;2022-12-10T09:36:13;93845.16;;;-0.53;87.03
30110;BME280;14965;50.660;13.226;2022-12-10T09:38:41;93842.03;;;-0.55;87.61
30110;BME280;14965;50.660;13.226;2022-12-10T09:41:17;93837.44;;;-0.61;88.08
30110;BME280;14965;50.660;13.226;2022-12-10T09:43:49;93837.84;;;-0.70;88.37
30110;BME280;14965;50.660;13.226;2022-12-10T09:46:23;93832.41;;;-0.73;89.01
30110;BME280;14965;50.660;13.226;2022-12-10T09:49:00;93832.78;;;-0.71;89.04
30110;BME280;14965;50.660;13.226;2022-12-10T09:51:29;93828.19;;;-0.78;88.76
30110;BME280;14965;50.660;13.226;2022-12-10T09:53:57;93829.72;;;-0.77;88.94
30110;BME280;14965;50.660;13.226;2022-12-10T09:56:26;93832.03;;;-0.72;90.33
30110;BME280;14965;50.660;13.226;2022-12-10T09:58:54;93832.03;;;-0.72;89.52
30110;BME280;14965;50.660;13.226;2022-12-10T10:01:24;93828.53;;;-0.76;89.38
30110;BME280;14965;50.660;13.226;2022-12-10T10:03:51;93826.63;;;-0.79;89.31
30110;BME280;14965;50.660;13.226;2022-12-10T10:06:18;93822.38;;;-0.84;89.44
30110;BME280;14965;50.660;13.226;2022-12-10T10:08:46;93823.53;;;-0.85;89.47
30110;BME280;14965;50.660;13.226;2022-12-10T10:11:14;93825.47;;;-0.82;89.51
30110;BME280;14965;50.660;13.226;2022-12-10T10:13:44;93822.00;;;-0.86;89.63
30110;BME280;14965;50.660;13.226;2022-12-10T10:16:20;93820.06;;;-0.92;89.42
30110;BME280;14965;50.660;13.226;2022-12-10T10:18:51;93814.69;;;-0.96;89.82
30110;BME280;14965;50.660;13.226;2022-12-10T10:21:22;93816.59;;;-0.93;89.84
30110;BME280;14965;50.660;13.226;2022-12-10T10:23:48;93814.69;;;-0.96;90.06
30110;BME280;14965;50.660;13.226;2022-12-10T10:26:14;93817.41;;;-1.07;90.00
30110;BME280;14965;50.660;13.226;2022-12-10T10:28:41;93814.28;;;-1.05;90.17
30110;BME280;14965;50.660;13.226;2022-12-10T10:31:16;93813.16;;;-1.04;90.72
30110;BME280;14965;50.660;13.226;2022-12-10T10:33:48;93824.34;;;-1.09;90.76
30110;BME280;14965;50.660;13.226;2022-12-10T10:36:14;93825.91;;;-1.26;90.43
30110;BME280;14965;50.660;13.226;2022-12-10T10:38:47;93818.97;;;-1.27;90.77
30110;BME280;14965;50.660;13.226;2022-12-10T10:41:13;93822.44;;;-1.23;91.04
30110;BME280;14965;50.660;13.226;2022-12-10T10:43:41;93816.28;;;-1.38;91.58
30110;BME280;14965;50.660;13.226;2022-12-10T10:46:11;93820.91;;;-1.49;92.64
30110;BME280;14965;50.660;13.226;2022-12-10T10:48:37;93824.00;;;-1.43;93.40
30110;BME280;14965;50.660;13.226;2022-12-10T10:51:13;93814.34;;;-1.37;93.25
30110;BME280;14965;50.660;13.226;2022-12-10T10:53:43;93820.13;;;-1.32;93.45
30110;BME280;14965;50.660;13.226;2022-12-10T10:56:12;93823.22;;;-1.26;93.26
30110;BME280;14965;50.660;13.226;2022-12-10T10:58:47;93825.16;;;-1.19;93.13
30110;BME280;14965;50.660;13.226;2022-12-10T11:01:15;93818.19;;;-1.17;92.58
30110;BME280;14965;50.660;13.226;2022-12-10T11:03:46;93815.84;;;-1.18;92.64
30110;BME280;14965;50.660;13.226;2022-12-10T11:06:13;93820.91;;;-1.20;92.28
30110;BME280;14965;50.660;13.226;2022-12-10T11:08:43;93822.44;;;-1.19;92.34
30110;BME280;14965;50.660;13.226;2022-12-10T11:11:12;93813.16;;;-1.18;92.38
30110;BME280;14965;50.660;13.226;2022-12-10T11:13:39;93817.03;;;-1.27;93.19
30110;BME280;14965;50.660;13.226;2022-12-10T11:16:11;93825.53;;;-1.39;93.48
30110;BME280;14965;50.660;13.226;2022-12-10T11:18:41;93824.00;;;-1.51;93.67
30110;BME280;14965;50.660;13.226;2022-12-10T11:21:16;93832.13;;;-1.68;94.41
30110;BME280;14965;50.660;13.226;2022-12-10T11:23:45;93823.59;;;-1.81;95.67
30110;BME280;14965;50.660;13.226;2022-12-10T11:26:26;93827.06;;;-1.84;96.30
30110;BME280;14965;50.660;13.226;2022-12-10T11:29:04;93832.09;;;-1.83;96.80
30110;BME280;14965;50.660;13.226;2022-12-10T11:31:39;93825.94;;;-1.80;96.80
30110;BME280;14965;50.660;13.226;2022-12-10T11:34:13;93822.44;;;-1.73;97.00
30110;BME280;14965;50.660;13.226;2022-12-10T11:36:52;93825.91;;;-1.72;96.75
30110;BME280;14965;50.660;13.226;2022-12-10T11:39:38;93830.16;;;-1.86;95.95
30110;BME280;14965;50.660;13.226;2022-12-10T11:42:13;93832.88;;;-1.86;97.01
30110;BME280;14965;50.660;13.226;2022-12-10T11:44:47;93829.78;;;-1.88;96.81
30110;BME280;14965;50.660;13.226;2022-12-10T11:47:29;93830.91;;;-1.99;97.35
30110;BME280;14965;50.660;13.226;2022-12-10T11:50:11;93820.84;;;-2.10;97.59
30110;BME280;14965;50.660;13.226;2022-12-10T11:52:47;93827.81;;;-2.12;97.32
30110;BME280;14965;50.660;13.226;2022-12-10T11:55:26;93826.63;;;-2.18;97.92
30110;BME280;14965;50.660;13.226;2022-12-10T11:58:06;93825.09;;;-2.16;98.11
30110;BME280;14965;50.660;13.226;2022-12-10T12:00:41;93821.25;;;-2.08;98.06
30110;BME280;14965;50.660;13.226;2022-12-10T12:03:26;93824.75;;;-2.00;98.19
30110;BME280;14965;50.660;13.226;2022-12-10T12:06:10;93824.38;;;-1.91;97.87
30110;BME280;14965;50.660;13.226;2022-12-10T12:08:51;93823.19;;;-1.97;97.65
30110;BME280;14965;50.660;13.226;2022-12-10T12:11:31;93828.22;;;-1.92;97.93
30110;BME280;14965;50.660;13.226;2022-12-10T12:14:07;93827.06;;;-1.98;97.69
30110;BME280;14965;50.660;13.226;2022-12-10T12:17:00;93826.66;;;-1.97;97.94
30110;BME280;14965;50.660;13.226;2022-12-10T12:19:34;93828.97;;;-2.03;97.74
30110;BME280;14965;50.660;13.226;2022-12-10T12:22:09;93822.03;;;-2.00;97.44
30110;BME280;14965;50.660;13.226;2022-12-10T12:24:37;93822.44;;;-1.91;97.57
30110;BME280;14965;50.660;13.226;2022-12-10T12:27:12;93818.56;;;-2.01;97.57
30110;BME280;14965;50.660;13.226;2022-12-10T12:29:44;93819.31;;;-2.00;97.71
30110;BME280;14965;50.660;13.226;2022-12-10T12:32:18;93827.44;;;-2.00;97.84
30110;BME280;14965;50.660;13.226;2022-12-10T12:34:55;93829.38;;;-2.04;97.13
30110;BME280;14965;50.660;13.226;2022-12-10T12:37:32;93825.50;;;-2.03;97.21
30110;BME280;14965;50.660;13.226;2022-12-10T12:40:03;93823.59;;;-1.92;96.80
30110;BME280;14965;50.660;13.226;2022-12-10T12:42:42;93823.59;;;-1.95;96.90
30110;BME280;14965;50.660;13.226;2022-12-10T12:45:14;93822.81;;;-1.99;96.67
30110;BME280;14965;50.660;13.226;2022-12-10T12:47:46;93827.44;;;-1.89;97.11
30110;BME280;14965;50.660;13.226;2022-12-10T12:50:26;93839.81;;;-1.95;95.83
30110;BME280;14965;50.660;13.226;2022-12-10T12:52:55;93833.63;;;-1.92;96.54
30110;BME280;14965;50.660;13.226;2022-12-10T12:55:28;93825.50;;;-2.03;94.59
30110;BME280;14965;50.660;13.226;2022-12-10T12:58:07;93834.00;;;-2.05;94.40